Terminal Aerodrome Forecast
Issued by NWS Cleveland, OH

Home | Current Version | Previous Version | Text Only | Print | Product List | Glossary Off
Versions: 1 2 3 4 5 6 7 8 9 10 11 12 13 14

000
FTUS41 KCLE 170500
TAFTOL
TAF
KTOL 170534Z 1706/1806 22008KT 6SM BR SCT019 OVC025
      TEMPO 1706/1710 BKN019 OVC025
     FM171000 20010KT P6SM BKN019 OVC025
      TEMPO 1711/1715 SCT019 OVC025
     FM171500 24015G25KT P6SM SCT020 BKN050
     FM180000 27012KT P6SM VCSH OVC025=

USA.gov is the U.S. government's official web portal to all federal, state and local government web resources and services.